sensor_id;sensor_type;location;lat;lon;timestamp;P1;durP1;ratioP1;P2;durP2;ratioP2
64094;SDS011;50353;51.420;5.682;2023-05-29T00:00:10;12.77;;;6.10;;
64094;SDS011;50353;51.420;5.682;2023-05-29T00:02:37;12.77;;;5.35;;
64094;SDS011;50353;51.420;5.682;2023-05-29T00:05:02;14.77;;;6.35;;
64094;SDS011;50353;51.420;5.682;2023-05-29T00:07:28;13.50;;;5.82;;
64094;SDS011;50353;51.420;5.682;2023-05-29T00:09:54;10.40;;;5.57;;
64094;SDS011;50353;51.420;5.682;2023-05-29T00:12:19;14.93;;;5.33;;
64094;SDS011;50353;51.420;5.682;2023-05-29T00:14:45;12.83;;;6.43;;
64094;SDS011;50353;51.420;5.682;2023-05-29T00:17:10;16.20;;;5.22;;
64094;SDS011;50353;51.420;5.682;2023-05-29T00:22:02;16.80;;;6.20;;
64094;SDS011;50353;51.420;5.682;2023-05-29T00:24:28;12.50;;;5.60;;
64094;SDS011;50353;51.420;5.682;2023-05-29T00:26:53;12.43;;;5.13;;
64094;SDS011;50353;51.420;5.682;2023-05-29T00:29:18;16.90;;;6.88;;
64094;SDS011;50353;51.420;5.682;2023-05-29T00:31:46;16.75;;;6.07;;
64094;SDS011;50353;51.420;5.682;2023-05-29T00:34:11;15.35;;;5.10;;
64094;SDS011;50353;51.420;5.682;2023-05-29T00:36:36;18.05;;;5.93;;
64094;SDS011;50353;51.420;5.682;2023-05-29T00:39:02;15.63;;;5.22;;
64094;SDS011;50353;51.420;5.682;2023-05-29T00:41:27;18.02;;;5.68;;
64094;SDS011;50353;51.420;5.682;2023-05-29T00:43:52;21.08;;;5.45;;
64094;SDS011;50353;51.420;5.682;2023-05-29T00:46:18;19.67;;;5.47;;
64094;SDS011;50353;51.420;5.682;2023-05-29T00:48:45;16.83;;;5.25;;
64094;SDS011;50353;51.420;5.682;2023-05-29T00:51:10;13.82;;;4.97;;
64094;SDS011;50353;51.420;5.682;2023-05-29T00:53:37;12.38;;;5.03;;
64094;SDS011;50353;51.420;5.682;2023-05-29T00:56:05;13.43;;;5.25;;
64094;SDS011;50353;51.420;5.682;2023-05-29T00:58:33;11.93;;;4.47;;
64094;SDS011;50353;51.420;5.682;2023-05-29T01:00:59;15.27;;;5.13;;
64094;SDS011;50353;51.420;5.682;2023-05-29T01:03:25;20.07;;;4.67;;
64094;SDS011;50353;51.420;5.682;2023-05-29T01:05:50;17.05;;;5.88;;
64094;SDS011;50353;51.420;5.682;2023-05-29T01:08:17;20.25;;;5.53;;
64094;SDS011;50353;51.420;5.682;2023-05-29T01:10:43;19.90;;;5.28;;
64094;SDS011;50353;51.420;5.682;2023-05-29T01:13:13;20.20;;;4.40;;
64094;SDS011;50353;51.420;5.682;2023-05-29T01:29:30;16.58;;;4.30;;
64094;SDS011;50353;51.420;5.682;2023-05-29T01:31:59;19.45;;;4.70;;
64094;SDS011;50353;51.420;5.682;2023-05-29T01:34:24;17.95;;;4.75;;
64094;SDS011;50353;51.420;5.682;2023-05-29T01:36:49;19.23;;;4.32;;
64094;SDS011;50353;51.420;5.682;2023-05-29T01:39:15;19.33;;;4.47;;
64094;SDS011;50353;51.420;5.682;2023-05-29T01:41:42;22.42;;;4.75;;
64094;SDS011;50353;51.420;5.682;2023-05-29T01:44:09;15.85;;;4.50;;
64094;SDS011;50353;51.420;5.682;2023-05-29T01:46:39;19.63;;;4.90;;
64094;SDS011;50353;51.420;5.682;2023-05-29T01:49:05;15.68;;;4.38;;
64094;SDS011;50353;51.420;5.682;2023-05-29T01:53:58;17.83;;;4.80;;
64094;SDS011;50353;51.420;5.682;2023-05-29T01:56:25;19.23;;;4.95;;
64094;SDS011;50353;51.420;5.682;2023-05-29T01:58:52;19.65;;;5.10;;
64094;SDS011;50353;51.420;5.682;2023-05-29T02:01:19;19.48;;;4.60;;
64094;SDS011;50353;51.420;5.682;2023-05-29T02:06:11;18.77;;;4.63;;
64094;SDS011;50353;51.420;5.682;2023-05-29T02:08:37;18.52;;;5.05;;
64094;SDS011;50353;51.420;5.682;2023-05-29T02:11:02;18.77;;;4.68;;
64094;SDS011;50353;51.420;5.682;2023-05-29T02:13:27;20.40;;;5.00;;
64094;SDS011;50353;51.420;5.682;2023-05-29T02:15:52;19.15;;;4.88;;
64094;SDS011;50353;51.420;5.682;2023-05-29T02:18:18;18.48;;;4.60;;
64094;SDS011;50353;51.420;5.682;2023-05-29T02:20:44;14.38;;;3.90;;
64094;SDS011;50353;51.420;5.682;2023-05-29T02:23:09;19.15;;;4.38;;
64094;SDS011;50353;51.420;5.682;2023-05-29T02:25:35;15.20;;;4.25;;
64094;SDS011;50353;51.420;5.682;2023-05-29T02:28:01;22.27;;;4.75;;
64094;SDS011;50353;51.420;5.682;2023-05-29T02:30:27;17.73;;;4.65;;
64094;SDS011;50353;51.420;5.682;2023-05-29T02:32:52;18.63;;;4.10;;
64094;SDS011;50353;51.420;5.682;2023-05-29T02:35:18;19.63;;;5.13;;
64094;SDS011;50353;51.420;5.682;2023-05-29T02:37:45;14.55;;;4.18;;
64094;SDS011;50353;51.420;5.682;2023-05-29T02:40:11;15.98;;;4.30;;
64094;SDS011;50353;51.420;5.682;2023-05-29T02:42:36;20.45;;;4.90;;
64094;SDS011;50353;51.420;5.682;2023-05-29T02:45:02;19.38;;;4.35;;
64094;SDS011;50353;51.420;5.682;2023-05-29T02:47:27;19.73;;;4.65;;
64094;SDS011;50353;51.420;5.682;2023-05-29T02:49:52;21.67;;;4.80;;
64094;SDS011;50353;51.420;5.682;2023-05-29T02:52:18;18.40;;;4.38;;
64094;SDS011;50353;51.420;5.682;2023-05-29T02:54:43;19.30;;;4.35;;
64094;SDS011;50353;51.420;5.682;2023-05-29T02:57:08;18.20;;;4.95;;
64094;SDS011;50353;51.420;5.682;2023-05-29T02:59:34;17.67;;;4.43;;
64094;SDS011;50353;51.420;5.682;2023-05-29T03:02:00;16.25;;;4.18;;
64094;SDS011;50353;51.420;5.682;2023-05-29T03:04:26;23.55;;;5.05;;
64094;SDS011;50353;51.420;5.682;2023-05-29T03:06:52;18.80;;;5.10;;
64094;SDS011;50353;51.420;5.682;2023-05-29T03:09:18;18.67;;;4.47;;
64094;SDS011;50353;51.420;5.682;2023-05-29T03:11:44;19.02;;;4.50;;
64094;SDS011;50353;51.420;5.682;2023-05-29T03:14:09;16.52;;;4.20;;
64094;SDS011;50353;51.420;5.682;2023-05-29T03:16:35;21.17;;;5.07;;
64094;SDS011;50353;51.420;5.682;2023-05-29T03:19:01;18.20;;;4.18;;
64094;SDS011;50353;51.420;5.682;2023-05-29T03:21:26;21.20;;;4.93;;
64094;SDS011;50353;51.420;5.682;2023-05-29T03:23:51;21.13;;;5.05;;
64094;SDS011;50353;51.420;5.682;2023-05-29T03:26:17;20.63;;;4.47;;
64094;SDS011;50353;51.420;5.682;2023-05-29T03:28:42;15.57;;;3.90;;
64094;SDS011;50353;51.420;5.682;2023-05-29T03:31:08;17.77;;;4.72;;
64094;SDS011;50353;51.420;5.682;2023-05-29T03:33:33;17.65;;;4.25;;
64094;SDS011;50353;51.420;5.682;2023-05-29T03:35:59;21.57;;;4.60;;
64094;SDS011;50353;51.420;5.682;2023-05-29T03:38:25;22.17;;;4.78;;
64094;SDS011;50353;51.420;5.682;2023-05-29T03:40:50;18.63;;;4.95;;
64094;SDS011;50353;51.420;5.682;2023-05-29T03:43:15;21.55;;;4.72;;
64094;SDS011;50353;51.420;5.682;2023-05-29T03:45:41;20.60;;;4.47;;
64094;SDS011;50353;51.420;5.682;2023-05-29T03:48:06;16.10;;;4.32;;
64094;SDS011;50353;51.420;5.682;2023-05-29T03:50:31;22.15;;;4.82;;
64094;SDS011;50353;51.420;5.682;2023-05-29T03:52:56;18.38;;;4.50;;
64094;SDS011;50353;51.420;5.682;2023-05-29T03:55:22;19.63;;;4.47;;
64094;SDS011;50353;51.420;5.682;2023-05-29T03:57:47;20.20;;;5.07;;
64094;SDS011;50353;51.420;5.682;2023-05-29T04:00:13;20.25;;;4.53;;
64094;SDS011;50353;51.420;5.682;2023-05-29T04:02:38;19.35;;;4.78;;
64094;SDS011;50353;51.420;5.682;2023-05-29T04:05:04;21.85;;;5.10;;
64094;SDS011;50353;51.420;5.682;2023-05-29T04:09:57;24.93;;;5.10;;
64094;SDS011;50353;51.420;5.682;2023-05-29T04:12:22;26.55;;;4.95;;
64094;SDS011;50353;51.420;5.682;2023-05-29T04:14:47;22.08;;;4.63;;
64094;SDS011;50353;51.420;5.682;2023-05-29T04:17:13;17.52;;;4.47;;
64094;SDS011;50353;51.420;5.682;2023-05-29T04:19:38;19.48;;;4.88;;
64094;SDS011;50353;51.420;5.682;2023-05-29T04:22:03;21.95;;;4.78;;
64094;SDS011;50353;51.420;5.682;2023-05-29T04:24:28;23.27;;;5.25;;
64094;SDS011;50353;51.420;5.682;2023-05-29T04:26:56;20.42;;;4.85;;
64094;SDS011;50353;51.420;5.682;2023-05-29T04:29:22;21.58;;;4.93;;
64094;SDS011;50353;51.420;5.682;2023-05-29T04:31:47;19.48;;;5.40;;
64094;SDS011;50353;51.420;5.682;2023-05-29T04:34:13;24.77;;;5.38;;
64094;SDS011;50353;51.420;5.682;2023-05-29T04:36:41;21.77;;;4.80;;
64094;SDS011;50353;51.420;5.682;2023-05-29T04:39:09;18.40;;;4.65;;
64094;SDS011;50353;51.420;5.682;2023-05-29T04:41:35;25.10;;;5.32;;
64094;SDS011;50353;51.420;5.682;2023-05-29T04:44:00;17.83;;;4.68;;
64094;SDS011;50353;51.420;5.682;2023-05-29T04:46:26;22.30;;;4.93;;
64094;SDS011;50353;51.420;5.682;2023-05-29T04:48:52;17.63;;;4.50;;
64094;SDS011;50353;51.420;5.682;2023-05-29T04:51:22;20.02;;;4.93;;
64094;SDS011;50353;51.420;5.682;2023-05-29T04:53:47;25.45;;;4.93;;
64094;SDS011;50353;51.420;5.682;2023-05-29T04:56:14;18.98;;;4.57;;
64094;SDS011;50353;51.420;5.682;2023-05-29T04:58:40;21.15;;;5.07;;
64094;SDS011;50353;51.420;5.682;2023-05-29T05:01:06;23.53;;;4.83;;
64094;SDS011;50353;51.420;5.682;2023-05-29T05:03:33;18.08;;;4.60;;
64094;SDS011;50353;51.420;5.682;2023-05-29T05:06:02;22.27;;;4.83;;
64094;SDS011;50353;51.420;5.682;2023-05-29T05:08:28;22.08;;;4.88;;
64094;SDS011;50353;51.420;5.682;2023-05-29T05:10:58;19.45;;;4.50;;
64094;SDS011;50353;51.420;5.682;2023-05-29T05:13:24;25.45;;;5.28;;
64094;SDS011;50353;51.420;5.682;2023-05-29T05:15:49;22.08;;;5.35;;
64094;SDS011;50353;51.420;5.682;2023-05-29T05:18:15;21.75;;;4.78;;
64094;SDS011;50353;51.420;5.682;2023-05-29T05:20:40;26.85;;;5.22;;
64094;SDS011;50353;51.420;5.682;2023-05-29T05:23:05;25.35;;;5.05;;
64094;SDS011;50353;51.420;5.682;2023-05-29T05:25:31;25.63;;;4.50;;
64094;SDS011;50353;51.420;5.682;2023-05-29T05:27:58;19.40;;;4.78;;
64094;SDS011;50353;51.420;5.682;2023-05-29T05:30:23;23.13;;;4.75;;
64094;SDS011;50353;51.420;5.682;2023-05-29T05:32:48;23.45;;;4.75;;
64094;SDS011;50353;51.420;5.682;2023-05-29T05:35:13;20.83;;;4.60;;
64094;SDS011;50353;51.420;5.682;2023-05-29T05:37:39;19.33;;;4.80;;
64094;SDS011;50353;51.420;5.682;2023-05-29T05:40:04;23.45;;;5.00;;
64094;SDS011;50353;51.420;5.682;2023-05-29T05:44:57;19.33;;;5.03;;
64094;SDS011;50353;51.420;5.682;2023-05-29T05:47:22;21.70;;;4.90;;
64094;SDS011;50353;51.420;5.682;2023-05-29T05:49:47;19.90;;;4.63;;
64094;SDS011;50353;51.420;5.682;2023-05-29T05:52:14;22.90;;;5.43;;
64094;SDS011;50353;51.420;5.682;2023-05-29T05:54:40;24.17;;;4.53;;
64094;SDS011;50353;51.420;5.682;2023-05-29T05:57:06;21.50;;;4.95;;
64094;SDS011;50353;51.420;5.682;2023-05-29T05:59:32;19.27;;;5.00;;
64094;SDS011;50353;51.420;5.682;2023-05-29T06:01:57;19.02;;;4.20;;
64094;SDS011;50353;51.420;5.682;2023-05-29T06:04:23;21.35;;;4.50;;
64094;SDS011;50353;51.420;5.682;2023-05-29T06:06:48;22.80;;;4.82;;
64094;SDS011;50353;51.420;5.682;2023-05-29T06:09:13;20.00;;;4.10;;
64094;SDS011;50353;51.420;5.682;2023-05-29T06:11:39;20.05;;;5.10;;
64094;SDS011;50353;51.420;5.682;2023-05-29T06:14:04;21.02;;;4.50;;
64094;SDS011;50353;51.420;5.682;2023-05-29T06:16:30;20.10;;;4.72;;
64094;SDS011;50353;51.420;5.682;2023-05-29T06:18:55;27.05;;;4.43;;
64094;SDS011;50353;51.420;5.682;2023-05-29T06:21:21;23.20;;;4.78;;
64094;SDS011;50353;51.420;5.682;2023-05-29T06:23:46;21.80;;;4.57;;
64094;SDS011;50353;51.420;5.682;2023-05-29T06:26:12;21.83;;;4.88;;
64094;SDS011;50353;51.420;5.682;2023-05-29T06:28:38;20.25;;;4.32;;
64094;SDS011;50353;51.420;5.682;2023-05-29T06:31:03;22.00;;;4.75;;
64094;SDS011;50353;51.420;5.682;2023-05-29T06:33:28;17.73;;;4.47;;
64094;SDS011;50353;51.420;5.682;2023-05-29T06:35:54;26.95;;;5.25;;
64094;SDS011;50353;51.420;5.682;2023-05-29T06:38:20;18.75;;;4.50;;
64094;SDS011;50353;51.420;5.682;2023-05-29T06:40:45;21.88;;;4.60;;
64094;SDS011;50353;51.420;5.682;2023-05-29T06:43:11;22.33;;;4.40;;
64094;SDS011;50353;51.420;5.682;2023-05-29T06:45:36;19.40;;;4.57;;
64094;SDS011;50353;51.420;5.682;2023-05-29T06:48:02;19.17;;;4.97;;
64094;SDS011;50353;51.420;5.682;2023-05-29T06:50:27;19.17;;;5.13;;
64094;SDS011;50353;51.420;5.682;2023-05-29T06:52:52;20.30;;;4.72;;
64094;SDS011;50353;51.420;5.682;2023-05-29T06:55:19;20.77;;;4.25;;
64094;SDS011;50353;51.420;5.682;2023-05-29T06:57:44;17.98;;;4.38;;
64094;SDS011;50353;51.420;5.682;2023-05-29T07:00:10;16.02;;;4.50;;
64094;SDS011;50353;51.420;5.682;2023-05-29T07:02:36;25.20;;;4.97;;
64094;SDS011;50353;51.420;5.682;2023-05-29T07:05:01;18.17;;;4.15;;
64094;SDS011;50353;51.420;5.682;2023-05-29T07:07:27;21.05;;;4.72;;
64094;SDS011;50353;51.420;5.682;2023-05-29T07:09:52;18.08;;;4.30;;
64094;SDS011;50353;51.420;5.682;2023-05-29T07:12:17;20.15;;;4.72;;
64094;SDS011;50353;51.420;5.682;2023-05-29T07:14:43;20.10;;;4.38;;
64094;SDS011;50353;51.420;5.682;2023-05-29T07:17:09;18.20;;;4.40;;
64094;SDS011;50353;51.420;5.682;2023-05-29T07:19:34;18.98;;;4.20;;
64094;SDS011;50353;51.420;5.682;2023-05-29T07:22:00;18.05;;;4.65;;
64094;SDS011;50353;51.420;5.682;2023-05-29T07:24:25;19.75;;;5.03;;
64094;SDS011;50353;51.420;5.682;2023-05-29T07:26:51;16.95;;;4.25;;
64094;SDS011;50353;51.420;5.682;2023-05-29T07:29:17;20.98;;;4.82;;
64094;SDS011;50353;51.420;5.682;2023-05-29T07:31:45;20.33;;;4.45;;
64094;SDS011;50353;51.420;5.682;2023-05-29T07:34:11;17.55;;;4.32;;
64094;SDS011;50353;51.420;5.682;2023-05-29T07:36:37;13.95;;;3.40;;
64094;SDS011;50353;51.420;5.682;2023-05-29T07:39:22;19.17;;;4.88;;
64094;SDS011;50353;51.420;5.682;2023-05-29T07:41:47;14.57;;;3.90;;
64094;SDS011;50353;51.420;5.682;2023-05-29T07:44:12;16.08;;;4.25;;
64094;SDS011;50353;51.420;5.682;2023-05-29T07:46:38;19.92;;;4.60;;
64094;SDS011;50353;51.420;5.682;2023-05-29T07:49:03;19.25;;;4.53;;
64094;SDS011;50353;51.420;5.682;2023-05-29T07:51:28;20.08;;;4.53;;
64094;SDS011;50353;51.420;5.682;2023-05-29T07:53:54;20.63;;;4.07;;
64094;SDS011;50353;51.420;5.682;2023-05-29T07:56:19;19.40;;;4.63;;
64094;SDS011;50353;51.420;5.682;2023-05-29T07:58:44;21.02;;;3.85;;
64094;SDS011;50353;51.420;5.682;2023-05-29T08:01:10;23.75;;;4.80;;
64094;SDS011;50353;51.420;5.682;2023-05-29T08:03:35;15.50;;;3.90;;
64094;SDS011;50353;51.420;5.682;2023-05-29T08:06:01;13.63;;;4.10;;
64094;SDS011;50353;51.420;5.682;2023-05-29T08:08:27;19.48;;;4.55;;
64094;SDS011;50353;51.420;5.682;2023-05-29T08:10:52;14.77;;;3.97;;
64094;SDS011;50353;51.420;5.682;2023-05-29T08:13:17;14.10;;;4.18;;
64094;SDS011;50353;51.420;5.682;2023-05-29T08:15:42;18.17;;;4.57;;
64094;SDS011;50353;51.420;5.682;2023-05-29T08:18:08;19.85;;;3.78;;
64094;SDS011;50353;51.420;5.682;2023-05-29T08:20:33;13.15;;;3.53;;
64094;SDS011;50353;51.420;5.682;2023-05-29T08:23:00;16.75;;;4.15;;
64094;SDS011;50353;51.420;5.682;2023-05-29T08:25:25;19.45;;;3.85;;
64094;SDS011;50353;51.420;5.682;2023-05-29T08:27:50;15.70;;;4.18;;
64094;SDS011;50353;51.420;5.682;2023-05-29T08:30:16;16.15;;;4.00;;
64094;SDS011;50353;51.420;5.682;2023-05-29T08:32:41;15.82;;;4.68;;
64094;SDS011;50353;51.420;5.682;2023-05-29T08:35:07;13.38;;;3.72;;
64094;SDS011;50353;51.420;5.682;2023-05-29T08:37:33;18.10;;;4.03;;
64094;SDS011;50353;51.420;5.682;2023-05-29T08:39:58;13.90;;;3.80;;
64094;SDS011;50353;51.420;5.682;2023-05-29T08:42:29;14.07;;;3.67;;
64094;SDS011;50353;51.420;5.682;2023-05-29T08:44:58;14.32;;;3.50;;
64094;SDS011;50353;51.420;5.682;2023-05-29T08:47:28;16.25;;;4.32;;
64094;SDS011;50353;51.420;5.682;2023-05-29T08:49:58;16.02;;;3.60;;
64094;SDS011;50353;51.420;5.682;2023-05-29T08:52:25;15.43;;;4.10;;
64094;SDS011;50353;51.420;5.682;2023-05-29T08:54:52;17.10;;;3.65;;
64094;SDS011;50353;51.420;5.682;2023-05-29T08:57:19;20.17;;;3.90;;
64094;SDS011;50353;51.420;5.682;2023-05-29T08:59:45;14.77;;;4.07;;
64094;SDS011;50353;51.420;5.682;2023-05-29T09:02:14;17.52;;;4.05;;
64094;SDS011;50353;51.420;5.682;2023-05-29T09:04:41;15.20;;;3.83;;
64094;SDS011;50353;51.420;5.682;2023-05-29T09:07:09;16.40;;;4.55;;
64094;SDS011;50353;51.420;5.682;2023-05-29T09:09:36;16.30;;;4.07;;
64094;SDS011;50353;51.420;5.682;2023-05-29T09:12:01;15.83;;;4.03;;
64094;SDS011;50353;51.420;5.682;2023-05-29T09:17:00;18.38;;;4.25;;
64094;SDS011;50353;51.420;5.682;2023-05-29T09:19:26;16.73;;;4.13;;
64094;SDS011;50353;51.420;5.682;2023-05-29T09:21:51;15.50;;;3.80;;
64094;SDS011;50353;51.420;5.682;2023-05-29T09:24:16;15.32;;;4.05;;
64094;SDS011;50353;51.420;5.682;2023-05-29T09:26:51;16.23;;;4.17;;
64094;SDS011;50353;51.420;5.682;2023-05-29T09:29:16;18.17;;;4.30;;
64094;SDS011;50353;51.420;5.682;2023-05-29T09:31:48;17.38;;;4.15;;
64094;SDS011;50353;51.420;5.682;2023-05-29T09:34:14;17.30;;;3.65;;
64094;SDS011;50353;51.420;5.682;2023-05-29T09:36:40;19.38;;;4.30;;
64094;SDS011;50353;51.420;5.682;2023-05-29T09:39:05;19.23;;;3.93;;
64094;SDS011;50353;51.420;5.682;2023-05-29T09:41:34;13.20;;;3.63;;
64094;SDS011;50353;51.420;5.682;2023-05-29T09:44:11;12.30;;;3.55;;
64094;SDS011;50353;51.420;5.682;2023-05-29T09:46:38;15.90;;;3.70;;
64094;SDS011;50353;51.420;5.682;2023-05-29T09:49:07;12.55;;;3.53;;
64094;SDS011;50353;51.420;5.682;2023-05-29T09:51:47;16.27;;;4.13;;
64094;SDS011;50353;51.420;5.682;2023-05-29T09:54:17;17.98;;;3.88;;
64094;SDS011;50353;51.420;5.682;2023-05-29T09:56:43;15.50;;;4.05;;
64094;SDS011;50353;51.420;5.682;2023-05-29T09:59:10;12.20;;;3.38;;
64094;SDS011;50353;51.420;5.682;2023-05-29T10:01:38;16.20;;;3.45;;
64094;SDS011;50353;51.420;5.682;2023-05-29T10:04:06;16.58;;;4.25;;
64094;SDS011;50353;51.420;5.682;2023-05-29T10:06:32;14.43;;;3.70;;
64094;SDS011;50353;51.420;5.682;2023-05-29T10:09:00;15.32;;;3.97;;
64094;SDS011;50353;51.420;5.682;2023-05-29T10:11:27;11.63;;;3.60;;
64094;SDS011;50353;51.420;5.682;2023-05-29T10:13:52;17.57;;;3.87;;
64094;SDS011;50353;51.420;5.682;2023-05-29T10:16:22;10.48;;;3.05;;
64094;SDS011;50353;51.420;5.682;2023-05-29T10:18:50;14.02;;;3.83;;
64094;SDS011;50353;51.420;5.682;2023-05-29T10:21:19;10.82;;;3.63;;
64094;SDS011;50353;51.420;5.682;2023-05-29T10:23:47;11.98;;;3.22;;
64094;SDS011;50353;51.420;5.682;2023-05-29T10:26:15;11.52;;;3.28;;
64094;SDS011;50353;51.420;5.682;2023-05-29T10:28:54;13.90;;;3.70;;
64094;SDS011;50353;51.420;5.682;2023-05-29T10:31:52;12.38;;;3.60;;
64094;SDS011;50353;51.420;5.682;2023-05-29T10:34:32;15.52;;;4.13;;
64094;SDS011;50353;51.420;5.682;2023-05-29T10:37:14;14.90;;;4.05;;
64094;SDS011;50353;51.420;5.682;2023-05-29T10:39:50;12.40;;;3.63;;
64094;SDS011;50353;51.420;5.682;2023-05-29T10:45:05;10.48;;;3.35;;
64094;SDS011;50353;51.420;5.682;2023-05-29T10:47:31;17.03;;;3.70;;
64094;SDS011;50353;51.420;5.682;2023-05-29T10:50:00;15.07;;;3.67;;
64094;SDS011;50353;51.420;5.682;2023-05-29T10:52:26;14.93;;;4.03;;
64094;SDS011;50353;51.420;5.682;2023-05-29T10:54:56;13.00;;;3.45;;
64094;SDS011;50353;51.420;5.682;2023-05-29T10:57:22;12.63;;;3.47;;
64094;SDS011;50353;51.420;5.682;2023-05-29T10:59:48;11.48;;;3.70;;
64094;SDS011;50353;51.420;5.682;2023-05-29T11:02:22;14.70;;;3.72;;
64094;SDS011;50353;51.420;5.682;2023-05-29T11:05:03;9.53;;;3.30;;
64094;SDS011;50353;51.420;5.682;2023-05-29T11:07:59;13.20;;;3.60;;
64094;SDS011;50353;51.420;5.682;2023-05-29T11:13:23;13.77;;;3.75;;
64094;SDS011;50353;51.420;5.682;2023-05-29T11:24:24;17.08;;;3.83;;
64094;SDS011;50353;51.420;5.682;2023-05-29T11:26:54;11.82;;;3.50;;
64094;SDS011;50353;51.420;5.682;2023-05-29T11:29:21;12.90;;;3.40;;
64094;SDS011;50353;51.420;5.682;2023-05-29T11:31:47;15.13;;;3.47;;
64094;SDS011;50353;51.420;5.682;2023-05-29T11:34:19;13.52;;;3.70;;
64094;SDS011;50353;51.420;5.682;2023-05-29T11:36:46;11.60;;;3.85;;
64094;SDS011;50353;51.420;5.682;2023-05-29T11:39:13;12.68;;;3.92;;
64094;SDS011;50353;51.420;5.682;2023-05-29T11:41:39;10.57;;;3.70;;
64094;SDS011;50353;51.420;5.682;2023-05-29T11:44:04;14.30;;;4.40;;
64094;SDS011;50353;51.420;5.682;2023-05-29T11:46:32;10.25;;;3.72;;
64094;SDS011;50353;51.420;5.682;2023-05-29T11:48:59;9.70;;;3.38;;
64094;SDS011;50353;51.420;5.682;2023-05-29T11:51:25;13.57;;;3.33;;
64094;SDS011;50353;51.420;5.682;2023-05-29T11:53:51;11.68;;;3.60;;
64094;SDS011;50353;51.420;5.682;2023-05-29T11:56:22;14.57;;;3.80;;
64094;SDS011;50353;51.420;5.682;2023-05-29T11:58:55;14.25;;;3.58;;
64094;SDS011;50353;51.420;5.682;2023-05-29T12:01:23;14.20;;;3.70;;
64094;SDS011;50353;51.420;5.682;2023-05-29T12:03:49;15.88;;;3.88;;
64094;SDS011;50353;51.420;5.682;2023-05-29T12:06:15;14.27;;;3.70;;
64094;SDS011;50353;51.420;5.682;2023-05-29T12:08:40;14.33;;;3.93;;
64094;SDS011;50353;51.420;5.682;2023-05-29T12:11:06;17.23;;;3.53;;
64094;SDS011;50353;51.420;5.682;2023-05-29T12:13:31;12.93;;;3.47;;
64094;SDS011;50353;51.420;5.682;2023-05-29T12:16:00;13.20;;;3.67;;
64094;SDS011;50353;51.420;5.682;2023-05-29T12:18:27;11.80;;;3.58;;
64094;SDS011;50353;51.420;5.682;2023-05-29T12:21:00;13.77;;;3.63;;
64094;SDS011;50353;51.420;5.682;2023-05-29T12:23:27;12.90;;;3.80;;
64094;SDS011;50353;51.420;5.682;2023-05-29T12:25:56;11.85;;;3.30;;
64094;SDS011;50353;51.420;5.682;2023-05-29T12:28:22;11.77;;;3.83;;
64094;SDS011;50353;51.420;5.682;2023-05-29T12:30:48;13.47;;;3.53;;
64094;SDS011;50353;51.420;5.682;2023-05-29T12:33:27;12.85;;;3.45;;
64094;SDS011;50353;51.420;5.682;2023-05-29T12:36:00;13.02;;;3.75;;
64094;SDS011;50353;51.420;5.682;2023-05-29T12:38:27;12.30;;;3.20;;
64094;SDS011;50353;51.420;5.682;2023-05-29T12:40:52;8.07;;;2.57;;
64094;SDS011;50353;51.420;5.682;2023-05-29T12:43:18;11.70;;;3.70;;
64094;SDS011;50353;51.420;5.682;2023-05-29T12:45:44;11.20;;;3.60;;
64094;SDS011;50353;51.420;5.682;2023-05-29T12:48:09;13.60;;;3.40;;
64094;SDS011;50353;51.420;5.682;2023-05-29T12:50:36;14.95;;;3.50;;
64094;SDS011;50353;51.420;5.682;2023-05-29T12:53:07;15.13;;;3.35;;
64094;SDS011;50353;51.420;5.682;2023-05-29T12:55:37;11.80;;;3.25;;
64094;SDS011;50353;51.420;5.682;2023-05-29T12:58:08;10.98;;;3.50;;
64094;SDS011;50353;51.420;5.682;2023-05-29T13:00:35;16.50;;;3.83;;
64094;SDS011;50353;51.420;5.682;2023-05-29T13:03:03;15.10;;;3.90;;
64094;SDS011;50353;51.420;5.682;2023-05-29T13:05:29;12.55;;;3.47;;
64094;SDS011;50353;51.420;5.682;2023-05-29T13:07:55;13.23;;;3.93;;
64094;SDS011;50353;51.420;5.682;2023-05-29T13:10:20;10.90;;;3.37;;
64094;SDS011;50353;51.420;5.682;2023-05-29T13:12:48;13.10;;;3.38;;
64094;SDS011;50353;51.420;5.682;2023-05-29T13:15:19;11.77;;;3.35;;
64094;SDS011;50353;51.420;5.682;2023-05-29T13:17:46;12.07;;;3.45;;
64094;SDS011;50353;51.420;5.682;2023-05-29T13:20:11;8.57;;;3.13;;
64094;SDS011;50353;51.420;5.682;2023-05-29T13:22:41;13.98;;;3.42;;
64094;SDS011;50353;51.420;5.682;2023-05-29T13:25:08;10.98;;;3.33;;
64094;SDS011;50353;51.420;5.682;2023-05-29T13:30:02;14.98;;;3.90;;
64094;SDS011;50353;51.420;5.682;2023-05-29T13:32:28;10.60;;;3.38;;
64094;SDS011;50353;51.420;5.682;2023-05-29T13:34:54;10.00;;;3.33;;
64094;SDS011;50353;51.420;5.682;2023-05-29T13:37:19;13.73;;;3.53;;
64094;SDS011;50353;51.420;5.682;2023-05-29T13:39:45;8.70;;;3.00;;
64094;SDS011;50353;51.420;5.682;2023-05-29T13:42:11;12.23;;;3.90;;
64094;SDS011;50353;51.420;5.682;2023-05-29T13:44:36;14.03;;;4.63;;
64094;SDS011;50353;51.420;5.682;2023-05-29T13:47:02;11.43;;;3.43;;
64094;SDS011;50353;51.420;5.682;2023-05-29T13:49:27;15.33;;;3.47;;
64094;SDS011;50353;51.420;5.682;2023-05-29T13:51:52;10.73;;;3.67;;
64094;SDS011;50353;51.420;5.682;2023-05-29T13:54:18;12.33;;;3.37;;
64094;SDS011;50353;51.420;5.682;2023-05-29T13:56:43;14.27;;;4.00;;
64094;SDS011;50353;51.420;5.682;2023-05-29T13:59:08;13.67;;;3.57;;
64094;SDS011;50353;51.420;5.682;2023-05-29T14:01:34;17.00;;;4.00;;
64094;SDS011;50353;51.420;5.682;2023-05-29T14:03:59;10.90;;;3.37;;
64094;SDS011;50353;51.420;5.682;2023-05-29T14:06:25;9.83;;;3.50;;
64094;SDS011;50353;51.420;5.682;2023-05-29T14:08:51;12.23;;;3.67;;
64094;SDS011;50353;51.420;5.682;2023-05-29T14:11:16;13.23;;;4.27;;
64094;SDS011;50353;51.420;5.682;2023-05-29T14:13:41;11.63;;;3.50;;
64094;SDS011;50353;51.420;5.682;2023-05-29T14:16:07;11.07;;;3.57;;
64094;SDS011;50353;51.420;5.682;2023-05-29T14:18:32;10.27;;;3.83;;
64094;SDS011;50353;51.420;5.682;2023-05-29T14:20:57;11.17;;;3.83;;
64094;SDS011;50353;51.420;5.682;2023-05-29T14:23:22;15.00;;;3.77;;
64094;SDS011;50353;51.420;5.682;2023-05-29T14:25:48;14.43;;;4.03;;
64094;SDS011;50353;51.420;5.682;2023-05-29T14:28:13;10.67;;;3.37;;
64094;SDS011;50353;51.420;5.682;2023-05-29T14:30:38;12.73;;;3.87;;
64094;SDS011;50353;51.420;5.682;2023-05-29T14:33:04;12.97;;;3.30;;
64094;SDS011;50353;51.420;5.682;2023-05-29T14:35:29;9.90;;;3.57;;
64094;SDS011;50353;51.420;5.682;2023-05-29T14:37:55;12.80;;;3.83;;
64094;SDS011;50353;51.420;5.682;2023-05-29T14:40:21;9.83;;;3.40;;
64094;SDS011;50353;51.420;5.682;2023-05-29T14:42:46;11.80;;;3.67;;
64094;SDS011;50353;51.420;5.682;2023-05-29T14:45:12;15.50;;;3.50;;
64094;SDS011;50353;51.420;5.682;2023-05-29T14:47:37;10.30;;;3.37;;
64094;SDS011;50353;51.420;5.682;2023-05-29T14:52:30;12.43;;;3.73;;
64094;SDS011;50353;51.420;5.682;2023-05-29T14:54:55;11.90;;;3.73;;
64094;SDS011;50353;51.420;5.682;2023-05-29T14:57:20;18.87;;;4.20;;
64094;SDS011;50353;51.420;5.682;2023-05-29T14:59:45;13.70;;;4.00;;
64094;SDS011;50353;51.420;5.682;2023-05-29T15:02:11;21.43;;;4.13;;
64094;SDS011;50353;51.420;5.682;2023-05-29T15:04:36;11.57;;;3.40;;
64094;SDS011;50353;51.420;5.682;2023-05-29T15:07:01;11.83;;;3.63;;
64094;SDS011;50353;51.420;5.682;2023-05-29T15:09:27;17.53;;;3.83;;
64094;SDS011;50353;51.420;5.682;2023-05-29T15:11:52;15.13;;;3.83;;
64094;SDS011;50353;51.420;5.682;2023-05-29T15:14:18;16.50;;;3.60;;
64094;SDS011;50353;51.420;5.682;2023-05-29T15:16:44;15.00;;;3.60;;
64094;SDS011;50353;51.420;5.682;2023-05-29T15:19:10;18.55;;;4.00;;